METAR Data
IDs: Format: Raw Decoded Include TAF

Data at: 2019 UTC 19 May 2019

KBRL 191953Z AUTO 27016G24KT 10SM SCT024 BKN035 OVC045 20/14 A2970 RMK AO2 SLP055 T02000144
KBRL 191853Z AUTO 28007G16KT 10SM FEW027 SCT048 BKN075 21/15 A2968 RMK AO2 RAB01E15 SLP046 P0002 T02110150
KBRL 191753Z AUTO 27012KT 10SM FEW024 SCT038 BKN045 20/15 A2966 RMK AO2 SLP041 60018 T02000150 10200 20156 53015
KBRL 191720Z AUTO 28008KT 10SM FEW021 BKN037 OVC048 19/15 A2965 RMK AO2 T01890150
KBRL 191653Z AUTO 23009KT 10SM SCT016 BKN021 OVC045 18/15 A2965 RMK AO2 RAB41E51 SLP036 P0001 T01780150
KBRL 191627Z AUTO 23012KT 10SM SCT018 BKN022 OVC095 19/15 A2963 RMK AO2 T01890150
KBRL 191553Z AUTO 24012G19KT 10SM OVC100 18/14 A2961 RMK AO2 PK WND 22027/1457 LTG DSNT E RAE27 SLP024 P0003 T01780144
KBRL 191515Z AUTO 24013G22KT 10SM -RA FEW033 FEW070 OVC095 16/12 A2960 RMK AO2 PK WND 22027/1457 LTG DSNT NE AND SE P0003 T01560122
KBRL 191503Z AUTO 23013G27KT 5SM VCTS RA FEW017 BKN070 OVC090 16/12 A2961 RMK AO2 PK WND 22027/1457 LTG DSNT SE AND S P0002 T01560122
KBRL 191456Z AUTO 22019G33KT 2SM VCTS RA FEW013 BKN032 OVC070 16/13 A2961 RMK AO2 LTG DSNT S P0001 T01610128
KBRL 191453Z AUTO 23017G46KT 1SM VCTS RA FEW013 BKN028 OVC070 16/13 A2962 RMK AO2 PK WND 21046/1445 LTG DSNT S RAB37 SLP026 P0014 60014 T01610128 53015
KBRL 191445Z AUTO 22026G46KT 1 3/4SM VCTS RA BKN015 OVC022 18/16 A2962 RMK AO2 PK WND 21046/1445 LTG DSNT S RAB37 PRESRR P0009 T01830156
KBRL 191353Z AUTO 21015G21KT 10SM OVC010 18/16 A2959 RMK AO2 LTG DSNT W AND NW SLP015 T01830161
KBRL 191301Z AUTO 20011KT 10SM OVC010 18/16 A2958 RMK AO2 CIG 007V013 T01780156
KBRL 191253Z AUTO 20010KT 10SM OVC008 18/16 A2958 RMK AO2 CIG 007V013 SLP011 T01780156
KBRL 191249Z AUTO 19010KT 10SM OVC008 18/16 A2957 RMK AO2 CIG 007V011
KBRL 191237Z AUTO 20008KT 10SM OVC010 18/16 A2957 RMK AO2 CIG 007V013 T01780156
KBRL 191208Z AUTO 20008KT 10SM BKN009 BKN050 17/16 A2957 RMK AO2 CIG 007V012 T01720156
KBRL 191200Z AUTO 20007KT 10SM SCT009 BKN030 BKN050 17/16 A2957 RMK AO2 T01720156
KBRL 191153Z AUTO 19009KT 10SM BKN009 BKN031 OVC055 17/15 A2957 RMK AO2 CIG 006V012 SLP009 70037 T01720150 10194 20172 58001
KBRL 191135Z AUTO 19009KT 9SM BKN010 OVC029 17/15 A2958 RMK AO2 CIG 006V013 T01720150
KBRL 191053Z AUTO 19011KT 8SM BKN008 OVC013 17/16 A2958 RMK AO2 SLP012 T01720156
KBRL 191012Z AUTO 21011KT 10SM BKN014 OVC025 17/15 A2957 RMK AO2 T01720150
KBRL 191001Z AUTO 21008KT 10SM SCT014 BKN019 OVC027 17/16 A2957 RMK AO2 T01720156
KBRL 190953Z AUTO 21008KT 10SM VCTS BKN014 BKN021 OVC027 17/16 A2957 RMK AO2 SLP010 T01720156
KBRL 190919Z AUTO 22010KT 10SM OVC015 17/16 A2958 RMK AO2 LTG DSNT SW T01720156
KBRL 190853Z AUTO 21007KT 10SM OVC012 17/16 A2958 RMK AO2 SLP012 T01720156 55000
KBRL 190825Z AUTO 21009KT 10SM BKN012 BKN110 17/16 A2958 RMK AO2 T01720156
KBRL 190817Z AUTO 21008KT 10SM SCT012 BKN110 17/16 A2957 RMK AO2 T01720156
KBRL 190805Z AUTO 21007KT 10SM BKN012 17/16 A2956 RMK AO2 T01720156
KBRL 190753Z AUTO 21007KT 10SM SCT011 17/16 A2956 RMK AO2 SLP008 T01720156
KBRL 190708Z AUTO 21009KT 10SM SCT012 18/16 A2957 RMK AO2 T01780161
KBRL 190653Z AUTO 21010KT 10SM BKN012 18/16 A2957 RMK AO2 SLP010 T01830161
KBRL 190641Z AUTO 21013G21KT 10SM BKN012 18/16 A2957 RMK AO2 T01830161
KBRL 190553Z AUTO 19012KT 10SM CLR 19/17 A2958 RMK AO2 SLP012 60013 T01890167 10222 20189 402220150 55002
KBRL 190453Z AUTO 18012KT 10SM FEW080 BKN095 BKN110 19/16 A2957 RMK AO2 SLP009 T01940161
KBRL 190353Z AUTO 15010KT 10SM OVC090 19/17 A2958 RMK AO2 SLP012 T01940172
KBRL 190253Z AUTO 14011KT 10SM SCT100 BKN120 19/17 A2958 RMK AO2 PK WND 20037/0157 WSHFT 0150 RAE49 TSE00 SLP013 P0010 60013 T01890172 58005
KBRL 190204Z AUTO 19020G37KT 4SM RA BKN065 BKN075 OVC100 21/18 A2963 RMK AO2 PK WND 20037/0157 WSHFT 0150 TSE00 P0004 T02110178
KBRL 190153Z AUTO 17024G35KT 120V190 6SM TSRA FEW050 BKN065 OVC080 22/18 A2962 RMK AO2 PK WND 18035/0153 RAB45 TSB43 PRESRR SLP025 P0003 T02220178
KBRL 190149Z AUTO 17009KT 9SM -TSRA BKN065 BKN080 BKN100 22/18 A2960 RMK AO2 RAB45 TSB43 P0001
KBRL 190053Z AUTO 13008KT 10SM FEW075 22/18 A2960 RMK AO2 SLP017 T02220178
KBRL 182353Z AUTO 12006KT 10SM OVC100 22/18 A2961 RMK AO2 SLP021 60004 T02170183 10217 20194 58029
KBRL 182253Z AUTO 12004KT 10SM OVC090 21/18 A2964 RMK AO2 LTG DSNT N AND NW RAE10 SLP032 P0001 T02060183
KBRL 182234Z AUTO 13003KT 10SM SCT080 OVC100 20/18 A2965 RMK AO2 LTG DSNT N AND NW RAE10 P0001 T02000178
KBRL 182153Z AUTO 25007KT 4SM VCTS -RA BR FEW075 FEW090 OVC110 19/18 A2968 RMK AO2 LTG DSNT ALQDS RAB30 SLP048 P0003 T01940178
KBRL 182141Z AUTO 22009KT 9SM VCTS -RA BKN110 20/18 A2968 RMK AO2 LTG DSNT SW-NW RAB30 P0001 T02000178
KBRL 182106Z AUTO 18013G22KT 10SM CLR 21/17 A2968 RMK AO2 LTG DSNT S-W T02060172
KBRL 182053Z AUTO 20015G22KT 10SM VCTS CLR 21/17 A2969 RMK AO2 PK WND 18027/2010 LTG DSNT S AND SW PRESRR SLP052 60000 T02060172 51002
KBRL 182051Z AUTO 19014G22KT 10SM VCTS CLR 21/17 A2969 RMK AO2 PK WND 18027/2010 LTG DSNT S AND SW
KBRL 181953Z AUTO 18015G24KT 10SM FEW011 21/18 A2969 RMK AO2 WSHFT 1900 LTG DSNT SE SLP052 T02060178
KBRL 181949Z AUTO 17015G24KT 10SM FEW011 21/18 A2969 RMK AO2 WSHFT 1900 LTG DSNT SE AND S
KBRL 181920Z AUTO 19010G18KT 10SM BKN012 21/18 A2969 RMK AO2 WSHFT 1900 LTG DSNT SE AND S T02060183
KBRL 181853Z AUTO 27010G16KT 10SM BKN011 20/18 A2969 RMK AO2 PK WND 16028/1834 RAB1759E10 PRESRR SLP052 P0000 T02000183
KBRL 181753Z AUTO 18011KT 9SM FEW007 BKN041 OVC110 19/18 A2968 RMK AO2 RAE27B42E52 SLP048 P0003 60020 T01940183 10222 20189 58017
KBRL 181739Z AUTO 9SM FEW009 BKN080 OVC110 19/18 A2969 RMK AO2 RAE27 P0003 T01940178
KBRL 181653Z AUTO 15011G18KT 7SM -RA FEW095 BKN120 19/17 A2970 RMK AO2 LTG DSNT E-SW RAE36B50 SLP054 P0004 T01890172
KBRL 181643Z AUTO 17007KT 10SM VCTS FEW036 BKN110 19/17 A2971 RMK AO2 LTG DSNT SE AND S RAE36 P0004 T01890172
KBRL 181631Z AUTO 15007KT 8SM -RA SCT029 SCT050 BKN080 19/17 A2972 RMK AO2 LTG DSNT SE AND S PRESFR P0003 T01890172
KBRL 181616Z AUTO 18009KT 6SM VCTS -RA BR FEW013 SCT090 OVC110 19/17 A2974 RMK AO2 LTG DSNT SE AND S P0002 T01890172
KBRL 181544Z AUTO 20008KT 6SM VCTS -RA FEW014 SCT095 OVC120 19/17 A2974 RMK AO2 LTG DSNT N AND SE AND S RAB21 TSE1456 P0002 T01940167
KBRL 181523Z AUTO 24006KT 5SM -RA SCT029 BKN095 OVC110 19/16 A2975 RMK AO2 LTG DSNT ALQDS RAB21 TSE1456 P0001 T01940161
KBRL 181502Z AUTO 22008KT 10SM VCTS SCT031 BKN080 OVC095 21/16 A2975 RMK AO2 LTG DSNT ALQDS TSE1456 T02060161
KBRL 181453Z AUTO 23009KT 10SM TS SCT037 SCT065 OVC080 21/16 A2974 RMK AO2 LTG DSNT ALQDS RAE01B13E42 TSE03B15E33B41 SLP065 P0002 60011 T02060161 55003
KBRL 181438Z AUTO 22009G19KT 10SM -RA BKN037 OVC070 21/17 A2974 RMK AO2 LTG DSNT ALQDS RAE01B13 TSE03B15E33 P0002 T02060167
KBRL 181421Z AUTO 22013KT 10SM -TSRA BKN038 OVC055 21/17 A2974 RMK AO2 LTG DSNT ALQDS RAE01B13 TSE03B15 P0002 T02060167
KBRL 181409Z AUTO 22011G20KT 10SM VCTS BKN035 BKN043 OVC055 21/17 A2973 RMK AO2 LTG DSNT SW-N RAE01 TSE03 P0001 T02060167
KBRL 181402Z AUTO 21008KT 10SM TS SCT034 BKN043 OVC070 21/17 A2972 RMK AO2 LTG DSNT ALQDS RAE01 P0001 T02060167
KBRL 181348Z AUTO 20011KT 2SM +TSRA FEW030 BKN044 OVC060 21/16 A2972 RMK AO2 VIS 1V5 LTG DSNT SW-N RAB46 TSB42 SLP057 P0009 T02110161
KBRL 181347Z AUTO 20010G19KT 2 1/2SM -TSRA FEW032 BKN044 BKN060 22/16 A2972 RMK AO2 LTG DSNT SW-N RAB46 TSB42 P0007
KBRL 181341Z AUTO 20012G19KT 10SM VCTS BKN042 BKN049 22/16 A2971 RMK AO2 LTG DSNT SW-N T02170156
KBRL 181253Z AUTO 18011KT 10SM CLR 22/15 A2972 RMK AO2 LTG DSNT W SLP057 T02170150
KBRL 181153Z AUTO 18008KT 10SM FEW070 19/15 A2974 RMK AO2 SLP067 70007 T01890150 10189 20150 56007
KBRL 181053Z AUTO 16005KT 10SM CLR 16/14 A2976 RMK AO2 SLP071 T01610139
KBRL 180953Z AUTO 13003KT 10SM CLR 16/14 A2975 RMK AO2 SLP070 T01560139
KBRL 180853Z AUTO 10004KT 10SM CLR 16/13 A2976 RMK AO2 SLP075 T01560133 56004